This is the latest recevied weather packets stored in our database for station/object DB0BQ-11. If no packets are shown the sender has not sent any weather packets the latest 10 day(s).
| Time | Temp. | Humidity | Pressure | Rain* | Wind** | Luminosity | Snow |
|---|---|---|---|---|---|---|---|
| 1777293928 | 19.44° C | 30% | 1022.4 hPa | - | - | - | - |
| 1777293327 | 19.44° C | 30% | 1022.6 hPa | - | - | - | - |
| 1777290937 | 17.78° C | 33% | 1022.8 hPa | - | - | - | - |
| 1777290335 | 17.78° C | 35% | 1023 hPa | - | - | - | - |
| 1777287344 | 16.11° C | 38% | 1023.3 hPa | - | - | - | - |
| 1777286120 | 16.11° C | 38% | 1023.4 hPa | - | - | - | - |
| 1777282527 | 15.56° C | 40% | 1023.9 hPa | - | - | - | - |
| 1777279536 | 13.89° C | 51% | 1024.2 hPa | - | - | - | - |
| 1777278934 | 13.89° C | 55% | 1024.1 hPa | - | - | - | - |
| 1777274719 | 10° C | 69% | 1024.3 hPa | - | - | - | - |
| 1777271728 | 7.78° C | 80% | 1024.4 hPa | - | - | - | - |
| 1777268717 | 5.56° C | 92% | 1024.2 hPa | - | - | - | - |
| 1777268135 | 5° C | 93% | 1024.2 hPa | - | - | - | - |
| 1777264522 | 4.44° C | 90% | 1023.9 hPa | - | - | - | - |
| 1777262735 | 5° C | 89% | 1023.8 hPa | - | - | - | - |
| 1777262133 | 5° C | 89% | 1023.8 hPa | - | - | - | - |
| 1777258540 | 5° C | 85% | 1023.8 hPa | - | - | - | - |
| 1777257316 | 5.56° C | 83% | 1023.8 hPa | - | - | - | - |
| 1777248926 | 4.44° C | 82% | 1024 hPa | - | - | - | - |
| 1777244731 | 5.56° C | 77% | 1024.1 hPa | - | - | - | - |
| 1777239331 | 7.22° C | 70% | 1023.9 hPa | - | - | - | - |
| 1777238729 | 7.22° C | 70% | 1023.9 hPa | - | - | - | - |
| 1777234534 | 8.89° C | 59% | 1024.1 hPa | - | - | - | - |
| 1777227328 | 14.44° C | 37% | 1023.4 hPa | - | - | - | - |
| 1777224919 | 15.56° C | 35% | 1023.4 hPa | - | - | - | - |
* Rain since midnight (hover to see other rain measurements)
** Current wind speed in m/s (hover to see current wind gust speed)